Lilypad — WDD9770 — position and weather

sailwx.info

Track history (hours):
 
Tides and Currents Weather Stations Pressure Air Temp Water Temp Dewpoint Dewpoint Depression Visibility Wind Speed Wind Dir Waves Ship Positions

Lilypad

Owner: weippert, don w, Yakima, WA. More information available from US FCC via Universal Licensing System and Coast Guard Vessel Documentation Center.

Last reported at 2015-Nov-11 16:33 UTC. Time now 2016-May-04 13:38 UTC.
Position N 32°24' W 117°08'.
Warning: this ship's position is months out of date.

Length 18 m; draft 6.9 m.

Type: Pleasure craft. MMSI: 367316110.

Date/timePositionNaut miles runAvg speedWind from/ knotsBaromVisibWave heightAir tempDewpointWater temp
2015-Nov-11 16:33N 32°24' W 117°08'8 8.4
2015-Nov-11 15:33N 32°32' W 117°11'8 8.1
2015-Nov-11 14:33N 32°40' W 117°14'  
2015-Nov-05 00:14N 32°43' W 117°14'1 1.3
2015-Nov-04 23:34N 32°43' W 117°13'0 0.0
2015-Nov-04 22:34N 32°43' W 117°13'0 0.2
2015-Nov-04 21:34N 32°43' W 117°13'4 3.8
2015-Nov-04 20:33N 32°41' W 117°16'8 8.1
2015-Nov-04 19:34N 32°48' W 117°20'8 8.2
2015-Nov-04 18:34N 32°56' W 117°24'8 7.8
2015-Nov-04 17:34N 33°03' W 117°28'8 8.1
2015-Nov-04 16:33N 33°10' W 117°32'8 7.8
2015-Nov-04 15:33N 33°17' W 117°36'8 8.1
2015-Nov-04 14:34N 33°25' W 117°40'  
Track history (hours):
 
Tides and Currents Weather Stations Pressure Air Temp Water Temp Dewpoint Dewpoint Depression Visibility Wind Speed Wind Dir Waves Ship Positions

Lilypad

Owner: weippert, don w, Yakima, WA. More information available from US FCC via Universal Licensing System and Coast Guard Vessel Documentation Center.

Last reported at 2015-Nov-11 16:33 UTC. Time now 2016-May-04 13:38 UTC.
Position N 32°24' W 117°08'.
Warning: this ship's position is months out of date.

Length 18 m; draft 6.9 m.

Type: Pleasure craft. MMSI: 367316110.

Date/timePositionNaut miles runAvg speedWind from/ knotsBaromVisibWave heightAir tempDewpointWater temp
2015-Nov-11 16:33N 32°24' W 117°08'8 8.4
2015-Nov-11 15:33N 32°32' W 117°11'8 8.1
2015-Nov-11 14:33N 32°40' W 117°14'  
2015-Nov-05 00:14N 32°43' W 117°14'1 1.3
2015-Nov-04 23:34N 32°43' W 117°13'0 0.0
2015-Nov-04 22:34N 32°43' W 117°13'0 0.2
2015-Nov-04 21:34N 32°43' W 117°13'4 3.8
2015-Nov-04 20:33N 32°41' W 117°16'8 8.1
2015-Nov-04 19:34N 32°48' W 117°20'8 8.2
2015-Nov-04 18:34N 32°56' W 117°24'8 7.8
2015-Nov-04 17:34N 33°03' W 117°28'8 8.1
2015-Nov-04 16:33N 33°10' W 117°32'8 7.8
2015-Nov-04 15:33N 33°17' W 117°36'8 8.1
2015-Nov-04 14:34N 33°25' W 117°40'  

Dump ship's entire track history